createdAt,value
2023-12-20T00:02:17.456Z,100484.94
2023-12-20T00:04:45.419Z,100483.13
2023-12-20T00:07:13.330Z,100476.69
2023-12-20T00:09:41.598Z,100471.13
2023-12-20T00:12:11.987Z,100486.81
2023-12-20T00:14:38.845Z,100495.09
2023-12-20T00:17:15.911Z,100486.72
2023-12-20T00:19:43.653Z,100483.75
2023-12-20T00:22:11.913Z,100488.66
2023-12-20T00:24:39.662Z,100503.81
2023-12-20T00:27:07.525Z,100502.63
2023-12-20T00:29:36.763Z,100501.13
2023-12-20T00:32:05.628Z,100497.59
2023-12-20T00:34:33.416Z,100502.81
2023-12-20T00:37:01.728Z,100509.69
2023-12-20T00:39:29.568Z,100516.09
2023-12-20T00:41:57.370Z,100501.03
2023-12-20T00:44:26.338Z,100501.03
2023-12-20T00:46:55.643Z,100514.50
2023-12-20T00:49:23.424Z,100510.94
2023-12-20T00:51:51.717Z,100515.50
2023-12-20T00:54:19.817Z,100512.72
2023-12-20T00:56:48.838Z,100508.00
2023-12-20T00:59:18.479Z,100509.84
2023-12-20T01:01:46.860Z,100508.81
2023-12-20T01:04:16.135Z,100506.50
2023-12-20T01:06:44.030Z,100503.81
2023-12-20T01:09:11.963Z,100508.72
2023-12-20T01:11:39.851Z,100502.22
2023-12-20T01:14:07.630Z,100497.84
2023-12-20T01:16:36.072Z,100507.41
2023-12-20T01:19:04.493Z,100502.66
2023-12-20T01:21:34.891Z,100495.88
2023-12-20T01:24:02.761Z,100499.25
2023-12-20T01:26:30.465Z,100505.59
2023-12-20T01:28:58.119Z,100503.25
2023-12-20T01:31:26.102Z,100503.91
2023-12-20T01:33:53.977Z,100513.31
2023-12-20T01:36:21.859Z,100502.72
2023-12-20T01:38:51.377Z,100509.88
2023-12-20T01:41:19.166Z,100510.22
2023-12-20T01:43:51.337Z,100522.41
2023-12-20T01:46:21.024Z,100518.13
2023-12-20T01:48:49.980Z,100513.66
2023-12-20T01:51:19.128Z,100514.59
2023-12-20T01:53:47.092Z,100517.34
2023-12-20T01:56:17.345Z,100517.53
2023-12-20T01:58:47.722Z,100513.53
2023-12-20T02:01:16.023Z,100510.06
2023-12-20T02:03:44.849Z,100517.50
2023-12-20T02:06:13.439Z,100517.50
2023-12-20T02:08:41.309Z,100523.72
2023-12-20T02:11:09.881Z,100517.69
2023-12-20T02:13:39.038Z,100520.19
2023-12-20T02:16:09.593Z,100503.25
2023-12-20T02:18:37.651Z,100502.13
2023-12-20T02:21:07.361Z,100489.03
2023-12-20T02:23:36.532Z,100488.66
2023-12-20T02:26:05.476Z,100482.63
2023-12-20T02:28:34.358Z,100477.22
2023-12-20T02:31:02.469Z,100488.47
2023-12-20T02:33:30.448Z,100491.28
2023-12-20T02:35:58.303Z,100479.19
2023-12-20T02:38:26.176Z,100481.59
2023-12-20T02:40:55.304Z,100475.19
2023-12-20T02:43:23.397Z,100479.81
2023-12-20T02:45:53.674Z,100489.25
2023-12-20T02:48:21.757Z,100493.63
2023-12-20T02:50:51.000Z,100485.75
2023-12-20T02:53:19.160Z,100482.38
2023-12-20T02:55:46.899Z,100477.19
2023-12-20T02:58:16.071Z,100469.00
2023-12-20T03:00:43.917Z,100466.78
2023-12-20T03:03:12.101Z,100471.16
2023-12-20T03:05:39.884Z,100473.38
2023-12-20T03:08:07.993Z,100472.41
2023-12-20T03:10:36.130Z,100466.38
2023-12-20T03:13:03.955Z,100462.00
2023-12-20T03:15:33.074Z,100458.94
2023-12-20T03:18:01.121Z,100448.66
2023-12-20T03:20:28.841Z,100449.22
2023-12-20T03:22:56.811Z,100448.53
2023-12-20T03:25:25.125Z,100442.53
2023-12-20T03:27:55.822Z,100433.41
2023-12-20T03:30:23.829Z,100434.59
2023-12-20T03:32:53.740Z,100433.09
2023-12-20T03:35:21.513Z,100426.72
2023-12-20T03:37:49.438Z,100431.63
2023-12-20T03:40:17.640Z,100421.72
2023-12-20T03:42:45.427Z,100419.66
2023-12-20T03:45:13.247Z,100426.78
2023-12-20T03:47:41.290Z,100420.84
2023-12-20T03:50:11.035Z,100419.66
2023-12-20T03:52:39.074Z,100415.34
2023-12-20T03:55:08.386Z,100413.34
2023-12-20T03:57:36.321Z,100414.81
2023-12-20T04:00:10.340Z,100411.66
2023-12-20T04:02:38.117Z,100417.41
2023-12-20T04:05:07.076Z,100411.84
2023-12-20T04:07:37.291Z,100416.53
2023-12-20T04:10:06.417Z,100414.03
2023-12-20T04:12:35.344Z,100413.16
2023-12-20T04:15:10.658Z,100414.66
2023-12-20T04:17:38.893Z,100402.19
2023-12-20T04:20:08.135Z,100408.63
2023-12-20T04:22:37.705Z,100418.03
2023-12-20T04:25:07.430Z,100416.31
2023-12-20T04:27:35.279Z,100414.16
2023-12-20T04:30:02.985Z,100403.41
2023-12-20T04:32:32.594Z,100402.00
2023-12-20T04:35:00.873Z,100394.78
2023-12-20T04:37:28.587Z,100396.81
2023-12-20T04:39:57.854Z,100394.13
2023-12-20T04:42:25.628Z,100390.63
2023-12-20T04:44:53.534Z,100393.13
2023-12-20T04:47:21.280Z,100383.53
2023-12-20T04:49:49.111Z,100374.28
2023-12-20T04:52:17.226Z,100387.53
2023-12-20T04:54:46.300Z,100390.06
2023-12-20T04:57:15.352Z,100392.75
2023-12-20T04:59:43.289Z,100394.78
2023-12-20T05:02:11.261Z,100388.75
2023-12-20T05:04:39.159Z,100393.41
2023-12-20T05:07:07.773Z,100390.72
2023-12-20T05:09:35.710Z,100378.66
2023-12-20T05:12:03.658Z,100379.78
2023-12-20T05:14:32.933Z,100381.94
2023-12-20T05:17:00.781Z,100376.56
2023-12-20T05:19:29.076Z,100379.88
2023-12-20T05:21:57.036Z,100382.22
2023-12-20T05:24:24.798Z,100382.22
2023-12-20T05:26:54.468Z,100390.94
2023-12-20T05:29:22.467Z,100390.31
2023-12-20T05:31:52.937Z,100382.09
2023-12-20T05:34:21.553Z,100375.41
2023-12-20T05:36:49.351Z,100372.41
2023-12-20T05:39:17.566Z,100369.88
2023-12-20T05:41:45.563Z,100375.50
2023-12-20T05:44:13.325Z,100377.06
2023-12-20T05:46:41.236Z,100375.88
2023-12-20T05:49:10.419Z,100390.31
2023-12-20T05:51:38.471Z,100363.53
2023-12-20T05:54:06.378Z,100382.09
2023-12-20T05:56:36.074Z,100376.91
2023-12-20T05:59:04.504Z,100378.09
2023-12-20T06:01:32.376Z,100382.28
2023-12-20T06:04:00.546Z,100384.31
2023-12-20T06:06:30.059Z,100390.72
2023-12-20T06:08:58.137Z,100385.34
2023-12-20T06:11:26.250Z,100380.06
2023-12-20T06:13:54.529Z,100380.63
2023-12-20T06:16:22.254Z,100380.88
2023-12-20T06:18:50.213Z,100385.63
2023-12-20T06:21:18.372Z,100381.56
2023-12-20T06:23:47.391Z,100375.16
2023-12-20T06:26:15.147Z,100391.84
2023-12-20T06:28:42.928Z,100381.25
2023-12-20T06:31:10.937Z,100376.72
2023-12-20T06:33:39.029Z,100371.16
2023-12-20T06:36:07.036Z,100372.28
2023-12-20T06:38:34.962Z,100372.75
2023-12-20T06:41:04.468Z,100372.47
2023-12-20T06:43:43.206Z,100371.41
2023-12-20T06:46:18.666Z,100370.50
2023-12-20T06:48:47.224Z,100363.25
2023-12-20T06:51:17.193Z,100362.78
2023-12-20T06:53:45.199Z,100365.19
2023-12-20T06:56:17.604Z,100359.63
2023-12-20T06:58:47.149Z,100379.84
2023-12-20T07:01:15.655Z,100365.56
2023-12-20T07:03:44.127Z,100371.09
2023-12-20T07:06:12.159Z,100363.59
2023-12-20T07:08:42.510Z,100364.06
2023-12-20T07:11:10.795Z,100357.19
2023-12-20T07:13:40.162Z,100363.94
2023-12-20T07:16:08.487Z,100365.63
2023-12-20T07:18:54.631Z,100352.22
2023-12-20T07:21:22.624Z,100341.38
2023-12-20T07:23:51.041Z,100336.66
2023-12-20T07:26:19.967Z,100356.59
2023-12-20T07:28:50.174Z,100352.91
2023-12-20T07:31:18.044Z,100360.31
2023-12-20T07:33:46.306Z,100358.75
2023-12-20T07:36:15.127Z,100358.22
2023-12-20T07:38:45.313Z,100342.06
2023-12-20T07:41:13.364Z,100349.94
2023-12-20T07:43:41.310Z,100354.13
2023-12-20T07:46:11.689Z,100356.63
2023-12-20T07:48:42.825Z,100344.88
2023-12-20T07:51:11.752Z,100358.69
2023-12-20T07:53:39.754Z,100371.38
2023-12-20T07:56:16.411Z,100361.91
2023-12-20T07:58:51.636Z,100349.13
2023-12-20T08:01:23.183Z,100345.66
2023-12-20T08:03:52.351Z,100338.72
2023-12-20T08:06:20.655Z,100340.75
2023-12-20T08:08:55.484Z,100363.94
2023-12-20T08:11:30.569Z,100352.84
2023-12-20T08:13:58.322Z,100345.41
2023-12-20T08:16:27.758Z,100347.19
2023-12-20T08:18:55.779Z,100337.16
2023-12-20T08:21:24.883Z,100336.31
2023-12-20T08:23:53.449Z,100339.97
2023-12-20T08:26:23.727Z,100336.22
2023-12-20T08:28:51.735Z,100316.56
2023-12-20T08:31:20.817Z,100335.59
2023-12-20T08:33:51.404Z,100328.53
2023-12-20T08:36:21.328Z,100313.78
2023-12-20T08:38:49.450Z,100309.31
2023-12-20T08:41:17.938Z,100316.66
2023-12-20T08:43:46.052Z,100308.97
2023-12-20T08:46:14.661Z,100323.75
2023-12-20T08:48:42.839Z,100307.59
2023-12-20T08:51:13.125Z,100310.91
2023-12-20T08:53:40.876Z,100307.59
2023-12-20T08:56:08.850Z,100305.53
2023-12-20T08:58:37.461Z,100306.09
2023-12-20T09:01:05.805Z,100295.53
2023-12-20T09:03:33.702Z,100288.75
2023-12-20T09:06:01.450Z,100280.69
2023-12-20T09:08:30.822Z,100279.19
2023-12-20T09:10:59.172Z,100276.50
2023-12-20T09:13:29.418Z,100273.25
2023-12-20T09:15:57.809Z,100280.50
2023-12-20T09:18:30.624Z,100257.31
2023-12-20T09:20:58.677Z,100254.63
2023-12-20T09:23:26.435Z,100257.03
2023-12-20T09:25:58.147Z,100262.03
2023-12-20T09:28:26.247Z,100261.56
2023-12-20T09:30:54.428Z,100270.16
2023-12-20T09:33:22.313Z,100256.91
2023-12-20T09:35:50.315Z,100253.00
2023-12-20T09:38:18.538Z,100253.28
2023-12-20T09:40:46.395Z,100246.69
2023-12-20T09:43:17.601Z,100251.31
2023-12-20T09:45:49.288Z,100259.25
2023-12-20T09:48:20.386Z,100256.78
2023-12-20T09:50:52.720Z,100269.53
2023-12-20T09:53:24.454Z,100243.16
2023-12-20T09:55:52.855Z,100244.66
2023-12-20T09:58:21.969Z,100223.94
2023-12-20T10:00:50.726Z,100227.75
2023-12-20T10:03:26.368Z,100226.75
2023-12-20T10:05:58.629Z,100210.28
2023-12-20T10:08:27.009Z,100228.94
2023-12-20T10:10:54.935Z,100236.94
2023-12-20T10:13:24.022Z,100224.09
2023-12-20T10:15:52.082Z,100225.09
2023-12-20T10:18:19.920Z,100221.13
2023-12-20T10:20:48.118Z,100222.13
2023-12-20T10:23:18.836Z,100212.91
2023-12-20T10:25:58.052Z,100230.13
2023-12-20T10:28:28.939Z,100213.56
2023-12-20T10:30:57.836Z,100213.19
2023-12-20T10:33:28.458Z,100214.97
2023-12-20T10:35:57.743Z,100211.38
2023-12-20T10:38:25.865Z,100217.22
2023-12-20T10:40:58.727Z,100212.69
2023-12-20T10:43:29.355Z,100207.47
2023-12-20T10:45:57.180Z,100197.53
2023-12-20T10:48:30.580Z,100197.91
2023-12-20T10:50:59.771Z,100201.13
2023-12-20T10:53:31.115Z,100204.09
2023-12-20T10:56:02.408Z,100203.06
2023-12-20T10:58:32.008Z,100197.88
2023-12-20T11:01:04.061Z,100180.91
2023-12-20T11:03:36.622Z,100192.03
2023-12-20T11:06:11.577Z,100191.00
2023-12-20T11:08:46.518Z,100191.41
2023-12-20T11:11:20.510Z,100175.78
2023-12-20T11:13:59.255Z,100191.91
2023-12-20T11:16:32.394Z,100190.53
2023-12-20T11:19:07.859Z,100188.31
2023-12-20T11:21:36.001Z,100182.38
2023-12-20T11:24:04.604Z,100176.19
2023-12-20T11:26:32.384Z,100193.56
2023-12-20T11:29:35.838Z,100186.84
2023-12-20T11:32:04.969Z,100174.03
2023-12-20T11:34:35.357Z,100183.34
2023-12-20T11:37:05.081Z,100191.53
2023-12-20T11:39:32.968Z,100206.94
2023-12-20T11:42:08.875Z,100212.78
2023-12-20T11:44:38.654Z,100205.91
2023-12-20T11:47:06.686Z,100236.72
2023-12-20T11:49:34.650Z,100240.47
2023-12-20T11:52:03.126Z,100221.53
2023-12-20T11:54:32.522Z,100219.63
2023-12-20T11:57:00.263Z,100221.84
2023-12-20T11:59:28.384Z,100231.13
2023-12-20T12:02:02.566Z,100219.97
2023-12-20T12:04:33.079Z,100212.72
2023-12-20T12:07:00.959Z,100200.03
2023-12-20T12:09:28.937Z,100207.91
2023-12-20T12:11:58.192Z,100204.03
2023-12-20T12:14:26.259Z,100194.09
2023-12-20T12:16:54.745Z,100195.84
2023-12-20T12:19:24.496Z,100195.56
2023-12-20T12:21:52.820Z,100196.88
2023-12-20T12:24:23.135Z,100207.00
2023-12-20T12:26:54.153Z,100201.88
2023-12-20T12:29:21.893Z,100192.78
2023-12-20T12:31:49.722Z,100185.19
2023-12-20T12:34:17.676Z,100194.75
2023-12-20T12:36:48.430Z,100187.97
2023-12-20T12:39:16.837Z,100192.41
2023-12-20T12:41:44.865Z,100198.38
2023-12-20T12:44:17.664Z,100196.06
2023-12-20T12:46:46.566Z,100202.88
2023-12-20T12:49:14.565Z,100200.41
2023-12-20T12:51:42.452Z,100193.72
2023-12-20T12:54:19.051Z,100195.75
2023-12-20T12:56:48.700Z,100197.81
2023-12-20T12:59:16.542Z,100185.63
2023-12-20T13:01:44.653Z,100183.50
2023-12-20T13:04:13.063Z,100185.38
2023-12-20T13:06:42.408Z,100186.03
2023-12-20T13:09:11.002Z,100186.38
2023-12-20T13:11:40.118Z,100189.34
2023-12-20T13:14:11.764Z,100172.47
2023-12-20T13:16:39.416Z,100180.34
2023-12-20T13:19:07.504Z,100189.44
2023-12-20T13:21:36.344Z,100187.22
2023-12-20T13:24:05.991Z,100184.91
2023-12-20T13:26:34.287Z,100183.22
2023-12-20T13:29:03.791Z,100178.78
2023-12-20T13:31:32.308Z,100169.69
2023-12-20T13:34:03.035Z,100171.53
2023-12-20T13:36:31.294Z,100189.00
2023-12-20T13:38:59.165Z,100188.06
2023-12-20T13:41:26.925Z,100194.94
2023-12-20T13:43:55.323Z,100179.69
2023-12-20T13:46:25.164Z,100181.28
2023-12-20T13:48:52.995Z,100178.47
2023-12-20T13:51:22.078Z,100180.81
2023-12-20T13:53:50.594Z,100180.41
2023-12-20T13:56:19.057Z,100172.44
2023-12-20T13:58:48.314Z,100170.31
2023-12-20T14:01:17.753Z,100183.56
2023-12-20T14:03:47.102Z,100189.72
2023-12-20T14:06:16.201Z,100174.88
2023-12-20T14:08:44.029Z,100175.06
2023-12-20T14:11:12.295Z,100172.66
2023-12-20T14:13:40.037Z,100183.41
2023-12-20T14:16:07.929Z,100179.78
2023-12-20T14:18:35.985Z,100180.06
2023-12-20T14:21:07.040Z,100170.59
2023-12-20T14:23:35.549Z,100184.88
2023-12-20T14:26:06.317Z,100178.47
2023-12-20T14:28:34.198Z,100183.56
2023-12-20T14:31:02.119Z,100184.44
2023-12-20T14:33:30.209Z,100177.84
2023-12-20T14:35:57.991Z,100183.22
2023-12-20T14:38:27.416Z,100190.63
2023-12-20T14:40:56.207Z,100190.63
2023-12-20T14:43:24.695Z,100190.25
2023-12-20T14:45:53.790Z,100198.91
2023-12-20T14:48:22.607Z,100188.06
2023-12-20T14:50:51.584Z,100199.63
2023-12-20T14:53:23.380Z,100199.44
2023-12-20T14:55:53.668Z,100197.81
2023-12-20T14:58:22.595Z,100189.72
2023-12-20T15:00:51.233Z,100200.22
2023-12-20T15:03:19.892Z,100197.53
2023-12-20T15:05:49.202Z,100200.56
2023-12-20T15:08:18.408Z,100192.97
2023-12-20T15:10:46.459Z,100208.56
2023-12-20T15:13:15.562Z,100203.63
2023-12-20T15:15:47.006Z,100188.88
2023-12-20T15:18:15.817Z,100193.72
2023-12-20T15:20:44.978Z,100192.41
2023-12-20T15:23:12.860Z,100203.81
2023-12-20T15:25:40.709Z,100202.81
2023-12-20T15:28:08.481Z,100214.22
2023-12-20T15:30:38.809Z,100214.13
2023-12-20T15:33:07.968Z,100211.25
2023-12-20T15:35:36.891Z,100211.69
2023-12-20T15:38:06.194Z,100208.56
2023-12-20T15:40:34.299Z,100209.31
2023-12-20T15:43:02.048Z,100213.28
2023-12-20T15:45:30.163Z,100218.41
2023-12-20T15:47:59.267Z,100215.69
2023-12-20T15:50:27.404Z,100221.56
2023-12-20T15:52:55.360Z,100223.31
2023-12-20T15:55:23.190Z,100221.47
2023-12-20T15:57:54.903Z,100230.94
2023-12-20T16:00:23.411Z,100226.94
2023-12-20T16:02:51.369Z,100227.50
2023-12-20T16:05:20.985Z,100227.66
2023-12-20T16:07:48.805Z,100218.69
2023-12-20T16:10:16.972Z,100218.41
2023-12-20T16:12:44.730Z,100218.69
2023-12-20T16:15:12.382Z,100227.78
2023-12-20T16:17:40.611Z,100234.06
2023-12-20T16:20:09.943Z,100241.41
2023-12-20T16:22:39.691Z,100231.66
2023-12-20T16:25:08.194Z,100228.97
2023-12-20T16:27:36.142Z,100233.22
2023-12-20T16:30:04.168Z,100234.53
2023-12-20T16:32:32.213Z,100232.38
2023-12-20T16:35:00.874Z,100236.38
2023-12-20T16:37:28.035Z,100232.50
2023-12-20T16:39:57.516Z,100231.47
2023-12-20T16:42:25.459Z,100222.38
2023-12-20T16:44:53.110Z,100226.72
2023-12-20T16:47:20.761Z,100223.84
2023-12-20T16:49:48.765Z,100214.28
2023-12-20T16:52:16.723Z,100223.09
2023-12-20T16:54:44.503Z,100220.50
2023-12-20T16:57:13.724Z,100221.53
2023-12-20T16:59:44.185Z,100225.59
2023-12-20T17:02:12.749Z,100219.47
2023-12-20T17:04:40.521Z,100213.34
2023-12-20T17:07:08.246Z,100207.50
2023-12-20T17:09:36.177Z,100211.34
2023-12-20T17:12:04.766Z,100212.63
2023-12-20T17:14:35.102Z,100210.25
2023-12-20T17:17:04.422Z,100209.00
2023-12-20T17:19:32.912Z,100206.16
2023-12-20T17:22:04.117Z,100201.97
2023-12-20T17:24:32.941Z,100205.00
2023-12-20T17:27:00.931Z,100204.47
2023-12-20T17:29:28.670Z,100212.25
2023-12-20T17:31:58.043Z,100212.06
2023-12-20T17:34:40.510Z,100204.91
2023-12-20T17:37:08.727Z,100189.34
2023-12-20T17:39:37.215Z,100188.69
2023-12-20T17:42:05.533Z,100190.34
2023-12-20T17:44:33.405Z,100184.31
2023-12-20T17:47:02.892Z,100185.53
2023-12-20T17:49:32.502Z,100176.25
2023-12-20T17:52:00.582Z,100176.53
2023-12-20T17:54:30.963Z,100176.53
2023-12-20T17:57:00.562Z,100181.19
2023-12-20T17:59:28.671Z,100180.81
2023-12-20T18:01:56.494Z,100165.25
2023-12-20T18:04:26.980Z,100158.84
2023-12-20T18:06:55.601Z,100165.44
2023-12-20T18:09:23.290Z,100161.69
2023-12-20T18:11:51.607Z,100153.38
2023-12-20T18:14:19.478Z,100153.00
2023-12-20T18:16:50.219Z,100146.78
2023-12-20T18:19:18.864Z,100133.50
2023-12-20T18:21:50.836Z,100136.28
2023-12-20T18:24:21.748Z,100138.88
2023-12-20T18:26:49.606Z,100132.69
2023-12-20T18:29:17.877Z,100132.09
2023-12-20T18:31:47.071Z,100134.16
2023-12-20T18:34:15.091Z,100122.94
2023-12-20T18:36:45.022Z,100119.63
2023-12-20T18:39:14.112Z,100109.69
2023-12-20T18:41:49.220Z,100119.03
2023-12-20T18:44:18.341Z,100108.56
2023-12-20T18:46:46.472Z,100107.91
2023-12-20T18:49:14.611Z,100097.34
2023-12-20T18:51:42.506Z,100096.13
2023-12-20T18:54:10.749Z,100091.41
2023-12-20T18:56:43.860Z,100082.78
2023-12-20T18:59:13.145Z,100077.59
2023-12-20T19:01:40.983Z,100060.25
2023-12-20T19:04:08.903Z,100060.72
2023-12-20T19:06:38.377Z,100050.78
2023-12-20T19:09:06.290Z,100050.56
2023-12-20T19:11:34.023Z,100037.31
2023-12-20T19:14:04.552Z,100032.13
2023-12-20T19:16:32.477Z,100031.47
2023-12-20T19:19:00.334Z,100026.09
2023-12-20T19:21:30.135Z,100028.53
2023-12-20T19:23:57.849Z,100023.78
2023-12-20T19:26:25.559Z,100023.53
2023-12-20T19:28:53.232Z,100019.34
2023-12-20T19:31:26.132Z,100007.97
2023-12-20T19:33:54.330Z,100005.09
2023-12-20T19:36:21.441Z,100003.69
2023-12-20T19:38:49.317Z,99991.53
2023-12-20T19:41:18.443Z,99994.00
2023-12-20T19:43:46.569Z,99988.09
2023-12-20T19:46:14.549Z,99973.41
2023-12-20T19:48:44.178Z,99970.16
2023-12-20T19:51:12.710Z,99965.22
2023-12-20T19:53:41.092Z,99965.88
2023-12-20T19:56:09.425Z,99957.63
2023-12-20T19:58:37.186Z,99946.84
2023-12-20T20:01:07.681Z,99941.91
2023-12-20T20:03:35.646Z,99929.09
2023-12-20T20:06:05.249Z,99924.53
2023-12-20T20:08:33.006Z,99922.50
2023-12-20T20:11:01.284Z,99911.75
2023-12-20T20:13:29.183Z,99895.59
2023-12-20T20:15:57.214Z,99901.78
2023-12-20T20:18:25.068Z,99894.38
2023-12-20T20:20:52.818Z,99873.31
2023-12-20T20:23:21.850Z,99868.75
2023-12-20T20:25:49.696Z,99855.09
2023-12-20T20:28:17.783Z,99837.72
2023-12-20T20:30:45.792Z,99825.09
2023-12-20T20:33:13.890Z,99822.41
2023-12-20T20:35:41.992Z,99815.97
2023-12-20T20:38:09.681Z,99808.75
2023-12-20T20:40:38.867Z,99798.81
2023-12-20T20:43:06.648Z,99805.47
2023-12-20T20:45:34.985Z,99795.34
2023-12-20T20:48:11.123Z,99788.94
2023-12-20T20:50:49.175Z,99774.25
2023-12-20T20:53:17.178Z,99775.28
2023-12-20T20:55:46.182Z,99766.56
2023-12-20T20:58:14.223Z,99759.53
2023-12-20T21:00:42.275Z,99751.66
2023-12-20T21:03:10.137Z,99762.47
2023-12-20T21:05:39.174Z,99742.00
2023-12-20T21:08:08.222Z,99734.53
2023-12-20T21:10:36.660Z,99745.94
2023-12-20T21:13:06.148Z,99721.72
2023-12-20T21:15:33.945Z,99725.44
2023-12-20T21:18:01.772Z,99720.03
2023-12-20T21:20:29.888Z,99711.16
2023-12-20T21:23:00.120Z,99708.06
2023-12-20T21:25:28.359Z,99702.06
2023-12-20T21:27:56.191Z,99708.06
2023-12-20T21:30:25.344Z,99680.50
2023-12-20T21:32:53.202Z,99690.91
2023-12-20T21:35:21.247Z,99683.44
2023-12-20T21:37:49.213Z,99681.16
2023-12-20T21:40:17.198Z,99663.75
2023-12-20T21:42:45.063Z,99661.50
2023-12-20T21:45:13.504Z,99646.75
2023-12-20T21:47:45.135Z,99655.03
2023-12-20T21:50:13.279Z,99649.06
2023-12-20T21:52:41.303Z,99641.59
2023-12-20T21:55:10.076Z,99633.34
2023-12-20T21:57:38.045Z,99639.34
2023-12-20T22:00:06.925Z,99638.09
2023-12-20T22:02:34.965Z,99635.00
2023-12-20T22:05:04.477Z,99632.53
2023-12-20T22:07:32.455Z,99630.47
2023-12-20T22:10:00.383Z,99629.84
2023-12-20T22:12:28.891Z,99627.34
2023-12-20T22:14:56.844Z,99623.63
2023-12-20T22:17:24.643Z,99633.38
2023-12-20T22:19:52.721Z,99626.34
2023-12-20T22:22:22.616Z,99627.41
2023-12-20T22:24:50.529Z,99623.28
2023-12-20T22:27:19.243Z,99633.84
2023-12-20T22:29:48.561Z,99630.13
2023-12-20T22:32:17.102Z,99621.59
2023-12-20T22:34:45.643Z,99606.25
2023-12-20T22:37:14.367Z,99613.72
2023-12-20T22:39:45.593Z,99625.75
2023-12-20T22:42:14.090Z,99613.09
2023-12-20T22:44:42.566Z,99609.38
2023-12-20T22:47:12.121Z,99605.44
2023-12-20T22:49:40.671Z,99601.88
2023-12-20T22:52:09.275Z,99593.59
2023-12-20T22:54:37.760Z,99601.69
2023-12-20T22:57:09.848Z,99589.25
2023-12-20T22:59:38.537Z,99599.84
2023-12-20T23:02:07.135Z,99587.81
2023-12-20T23:04:36.129Z,99588.19
2023-12-20T23:07:04.942Z,99583.25
2023-12-20T23:09:33.532Z,99588.03
2023-12-20T23:12:02.575Z,99580.34
2023-12-20T23:14:32.870Z,99571.22
2023-12-20T23:17:01.781Z,99568.09
2023-12-20T23:19:31.133Z,99574.56
2023-12-20T23:21:59.732Z,99569.75
2023-12-20T23:24:28.456Z,99563.34
2023-12-20T23:26:57.077Z,99551.34
2023-12-20T23:29:25.732Z,99550.31
2023-12-20T23:31:55.557Z,99529.34
2023-12-20T23:34:24.069Z,99532.03
2023-12-20T23:36:52.771Z,99533.06
2023-12-20T23:39:21.798Z,99514.84
2023-12-20T23:41:50.610Z,99522.28
2023-12-20T23:44:19.312Z,99521.25
2023-12-20T23:46:47.960Z,99520.88
2023-12-20T23:49:18.246Z,99516.06
2023-12-20T23:51:46.966Z,99513.81
2023-12-20T23:54:15.807Z,99523.72
2023-12-20T23:56:45.551Z,99503.22
2023-12-20T23:59:14.359Z,99523.56
